Sunday, May 27, 2018, 9:40 AM EDT
Back to Local

KBLM, Belmar-farmingdale

Location: Farmingdale, NJ, United States Lat: 40.183
Local Time: 9:40 AM EDT (13:40 GMT) Lon: -74.133
Time Zone: US/Eastern Elev: 157 ft

Show me the last for .
Show Decoded

2018-05-27 08:56 METAR KBLM 271256Z AUTO 04006KT 4SM -RA BR OVC004 16/15 A3001 RMK AO2 SLP165
                 P0038 T01560150 =
2018-05-27 08:45 METAR KBLM 271245Z AUTO 07009G19KT 3SM +RA BR BKN004 OVC028 16/15 A3000 RMK AO2
                 P0034 =
2018-05-27 08:38 METAR KBLM 271238Z AUTO 04013G19KT 2 1/2SM +RA BR SCT004 BKN028 OVC033 16/15
                 A2999 RMK AO2 P0026 =
2018-05-27 08:27 METAR KBLM 271227Z AUTO 06004KT 3SM RA BR FEW004 SCT013 OVC028 16/16 A2999 RMK
                 AO2 P0009 =
2018-05-27 08:19 METAR KBLM 271219Z AUTO 06006KT 3SM RA BR SCT004 SCT013 OVC030 16/15 A2999 RMK
                 AO2 P0007 =
2018-05-27 08:15 METAR KBLM 271215Z AUTO 05009KT 3SM RA BR SCT004 BKN013 OVC030 16/15 A2998 RMK
                 AO2 P0006 =
2018-05-27 07:56 METAR KBLM 271156Z AUTO 02008KT 4SM -RA BR OVC002 16/15 A2997 RMK AO2 SLP152
                 P0040 60277 7//// T01560150 10228 20156 51012 TSNO =
2018-05-27 07:18 METAR KBLM 271118Z AUTO 06008KT 3SM RA BR OVC002 16/15 A2997 RMK AO2 LTG DSNT
                 W-NE P0024 =
2018-05-27 06:56 METAR KBLM 271056Z AUTO 06011KT 2SM +RA BR OVC002 16/15 A2996 RMK AO2 TSE30
                 SLP147 P0048 T01560150 =
2018-05-27 06:36 METAR KBLM 271036Z AUTO 05014G20KT 8SM -RA OVC002 16/16 A2995 RMK AO2 LTG DSNT
                 NW-NE TSE30 P0020 =
2018-05-27 06:18 METAR KBLM 271018Z AUTO 05015KT 4SM VCTS -RA BR BKN002 OVC013 17/16 A2994 RMK
                 AO2 LTG DSNT W-NE P0020 =
2018-05-27 06:09 METAR KBLM 271009Z AUTO 06011G20KT 4SM VCTS +RA BR SCT002 OVC015 17/17 A2995 RMK
                 AO2 LTG DSNT W-NE P0018 =
2018-05-27 05:56 METAR KBLM 270956Z AUTO 03009KT 5SM VCTS -RA BR BKN015 BKN025 OVC032 18/17 A2994
                 RMK AO2 LTG DSNT W-NE TSB05 SLP139 P0092 T01780172 =
2018-05-27 05:52 METAR KBLM 270952Z AUTO 04013KT 4SM TSRA BR SCT015 BKN025 OVC032 18/17 A2993 RMK
                 AO2 LTG DSNT W-NE TSB05 P0092 =
2018-05-27 05:11 METAR KBLM 270911Z AUTO 15011KT 5SM +TSRA BR FEW022 OVC035 19/19 A2992 RMK AO2
                 LTG DSNT ALQDS TSB05 PRESRR P0016 =
2018-05-27 04:56 METAR KBLM 270856Z AUTO 04008KT 6SM +RA BR FEW022 BKN042 OVC060 20/19 A2989 RMK
                 AO2 LTG DSNT N AND SE AND NW TSE02B04E56RAB0758 SLP122 P0058 60097 T02000189
                 55003 =
2018-05-27 04:04 METAR KBLM 270804Z AUTO 07007KT 10SM -TSRA OVC055 21/19 A2988 RMK AO2 LTG DSNT E
                 AND SE TSE02B04RAB0758 P0000 =
2018-05-27 03:56 METAR KBLM 270756Z AUTO 08010KT 10SM TS OVC055 21/19 A2988 RMK AO2 LTG DSNT E
                 AND SE AND NW TSE15B17RAB02E32 SLP120 P0020 T02110194 =
2018-05-27 03:36 METAR KBLM 270736Z AUTO 12007KT 10SM TS SCT029 OVC060 21/19 A2990 RMK AO2 LTG
                 DSNT NE-SE TSE15B17RAB02E32 P0020 =
2018-05-27 03:17 METAR KBLM 270717Z AUTO VRB03KT 6SM TSRA BR BKN029 OVC060 21/20 A2989 RMK AO2
                 LTG DSNT NE-SE TSE15B17RAB02 P0020 =
2018-05-27 02:56 METAR KBLM 270656Z AUTO 01006KT 10SM VCTS BKN029 BKN048 OVC085 21/19 A2989 RMK
                 AO2 LTG DSNT N-E TSE10B12E15B17RAE49 SLP124 P0019 T02060194 =
2018-05-27 02:17 METAR KBLM 270617Z AUTO 04009KT 10SM -TSRA SCT024 BKN034 OVC075 22/18 A2989 RMK
                 AO2 LTG DSNT E AND SE AND W TSE10B12E15B17 P0019 =
2018-05-27 02:12 METAR KBLM 270612Z AUTO 05012KT 6SM -TSRA BR FEW022 BKN065 OVC090 22/19 A2990
                 RMK AO2 LTG DSNT E AND SE AND W TSE10B12 P0018 =
2018-05-27 01:56 METAR KBLM 270556Z AUTO 07013KT 6SM -TSRA FEW032 SCT070 BKN085 23/19 A2990 RMK
                 AO2 LTG DSNT SE TSB18RAB30 SLP125 P0033 6//// T02280194 10267 20217 53004 =
2018-05-27 01:24 METAR KBLM 270524Z AUTO 19005KT 10SM VCTS BKN065 24/20 A2988 RMK AO2 TSB18 =
2018-05-27 00:56 METAR KBLM 270456Z AUTO 22004KT 10SM CLR 24/20 A2989 RMK AO2 SLP123 T02390200
                 403330206 =
2018-05-26 23:56 METAR KBLM 270356Z AUTO 21005KT 10SM SCT065 24/19 A2989 RMK AO2 SLP123 T02440194
                 =
2018-05-26 22:56 METAR KBLM 270256Z AUTO 20003KT 10SM CLR 23/19 A2988 RMK AO2 SLP121 60009
                 T02280189 51015 =
2018-05-26 21:56 METAR KBLM 270156Z AUTO 00000KT 10SM BKN060 23/20 A2987 RMK AO2 PK WND
                 29026/0114 TSE36RAE38 SLP116 P0005 T02280200 =
2018-05-26 21:42 METAR KBLM 270142Z AUTO 08005KT 10SM BKN060 BKN095 22/19 A2987 RMK AO2 PK WND
                 29026/0114 TSE36RAE38 P0005 =
2018-05-26 20:56 METAR KBLM 270056Z AUTO 27009G19KT 6SM TSRA BKN100 23/19 A2986 RMK AO2
                 TSB39E42B43RAB39 SLP115 P0004 T02280194 =
2018-05-26 20:49 METAR KBLM 270049Z AUTO 26013G19KT 10SM -TSRA BKN100 24/19 A2986 RMK AO2
                 TSB39E42B43RAB39 P0000 =
2018-05-26 20:42 METAR KBLM 270042Z AUTO 00000KT 10SM -RA OVC100 26/19 A2985 RMK AO2
                 TSB39E42RAB39 P0000 =
2018-05-26 19:56 METAR KBLM 262356Z AUTO 01010KT 10SM CLR 27/17 A2984 RMK AO2 WSHFT 2243 TSE33
                 SLP107 6//// T02670172 10333 20256 53014 =
2018-05-26 19:39 METAR KBLM 262339Z AUTO 02013G17KT 10SM CLR 26/17 A2984 RMK AO2 WSHFT 2243 TSE33
                 =
2018-05-26 19:03 METAR KBLM 262303Z AUTO 01016G22KT 10SM VCTS SCT070 27/18 A2984 RMK AO2 WSHFT
                 2243 LTG DSNT N =
2018-05-26 18:56 METAR KBLM 262256Z AUTO 35013G22KT 10SM VCTS CLR 27/18 A2983 RMK AO2 WSHFT 2239
                 LTG DSNT NW-NE TSB09 SLP104 T02670178 =
2018-05-26 18:15 METAR KBLM 262215Z AUTO 21007KT 10SM VCTS CLR 31/19 A2979 RMK AO2 LTG DSNT N AND
                 NW TSB09 =
2018-05-26 17:56 METAR KBLM 262156Z AUTO 25009KT 10SM CLR 32/19 A2980 RMK AO2 SLP092 T03170194 =
2018-05-26 16:56 METAR KBLM 262056Z AUTO 24007KT 10SM CLR 32/19 A2980 RMK AO2 SLP093 6////
                 T03170194 55007 TSNO =
2018-05-26 15:56 METAR KBLM 261956Z AUTO 27008G14KT 10SM SCT060 33/19 A2979 RMK AO2 SLP091
                 T03280189 =
2018-05-26 14:56 METAR KBLM 261856Z AUTO 17006KT 10SM SCT050 SCT070 31/21 A2981 RMK AO2 SLP096
                 T03060211 =
2018-05-26 13:56 METAR KBLM 261756Z AUTO 21005KT 10SM BKN075 32/21 A2982 RMK AO2 SLP100 T03220206
                 10328 20233 =
2018-05-26 12:56 METAR KBLM 261656Z AUTO VRB06KT 10SM SCT080 31/21 A2984 RMK AO2 SLP105 T03060206
                 =
2018-05-26 11:56 METAR KBLM 261556Z AUTO 26006KT 10SM BKN085 29/21 A2985 RMK AO2 SLP109 T02940211
                 =
2018-05-26 10:56 METAR KBLM 261456Z AUTO 25009KT 10SM CLR 29/21 RMK AO2 SLPNO T02890206 $ =
2018-05-26 09:56 METAR KBLM 261356Z AUTO 25008KT 10SM CLR 27/21 A2986 RMK AO2 SLP113 T02720206 =

Support USWX by starting your Amazon purchase here.